TimeEDT,TemperatureF,Dew PointF,Humidity,Sea Level PressureIn,VisibilityMPH,Wind Direction,Wind SpeedMPH,Gust SpeedMPH,PrecipitationIn,Events,Conditions,WindDirDegrees,DateUTC
12:48 AM,53.6,51.8,94,30.15,9.0,NE,3.5,-,0.00,Rain-Thunderstorm,Light Rain,50,2013-04-17 04:48:00
12:53 AM,54.0,51.1,90,30.16,10.0,North,5.8,-,0.00,Thunderstorm,Mostly Cloudy,360,2013-04-17 04:53:00
1:07 AM,51.8,48.2,88,30.18,4.0,North,9.2,24.2,0.11,Rain-Thunderstorm,Heavy Thunderstorms and Rain,360,2013-04-17 05:07:00
1:16 AM,51.8,48.2,88,30.15,4.0,ENE,9.2,-,0.14,Rain-Thunderstorm,Thunderstorms and Rain,70,2013-04-17 05:16:00
1:53 AM,53.1,48.9,86,30.14,10.0,East,6.9,-,0.15,Rain-Thunderstorm,Light Rain,80,2013-04-17 05:53:00
2:36 AM,53.6,50.0,88,30.14,7.0,ENE,9.2,-,0.04,Rain,Light Rain,60,2013-04-17 06:36:00
2:53 AM,53.1,50.0,89,30.16,9.0,North,5.8,-,0.04,Rain,Light Rain,360,2013-04-17 06:53:00
3:04 AM,51.8,50.0,94,30.14,6.0,NE,6.9,-,0.00,Rain,Light Rain,40,2013-04-17 07:04:00
3:14 AM,53.6,50.0,88,30.15,7.0,NNE,6.9,-,0.00,Rain-Thunderstorm,Light Thunderstorms and Rain,30,2013-04-17 07:14:00
3:44 AM,51.8,50.0,94,30.18,4.0,North,3.5,-,0.13,Rain-Thunderstorm,Heavy Thunderstorms and Rain,350,2013-04-17 07:44:00
3:53 AM,52.0,48.9,89,30.16,4.0,NE,6.9,-,0.14,Rain-Thunderstorm,Light Thunderstorms and Rain,40,2013-04-17 07:53:00
4:04 AM,51.8,48.2,88,30.12,5.0,ENE,13.8,-,0.04,Rain-Thunderstorm,Heavy Rain,60,2013-04-17 08:04:00
4:15 AM,51.8,48.2,88,30.13,7.0,ENE,9.2,-,0.04,Rain-Thunderstorm,Light Rain,60,2013-04-17 08:15:00
4:36 AM,53.6,48.2,82,30.17,10.0,North,8.1,-,0.04,,Overcast,360,2013-04-17 08:36:00
4:41 AM,51.8,48.2,88,30.18,10.0,North,10.4,-,0.04,Thunderstorm,Thunderstorm,350,2013-04-17 08:41:00
4:53 AM,52.0,48.9,89,30.17,8.0,NE,9.2,-,0.05,Rain-Thunderstorm,Light Thunderstorms and Rain,40,2013-04-17 08:53:00
5:19 AM,51.8,48.2,88,30.17,8.0,NNE,12.7,-,0.00,Rain,Light Rain,30,2013-04-17 09:19:00
5:53 AM,51.1,48.0,89,30.14,10.0,ENE,11.5,-,0.00,,Overcast,60,2013-04-17 09:53:00
6:53 AM,52.0,48.0,86,30.14,10.0,ENE,13.8,-,N/A,,Scattered Clouds,70,2013-04-17 10:53:00
7:53 AM,53.1,48.9,86,30.16,9.0,NE,9.2,-,N/A,,Overcast,50,2013-04-17 11:53:00
8:46 AM,53.6,50.0,88,30.16,7.0,ENE,10.4,-,N/A,,Overcast,70,2013-04-17 12:46:00
8:53 AM,54.0,50.0,86,30.15,7.0,East,10.4,-,N/A,,Overcast,100,2013-04-17 12:53:00
9:10 AM,53.6,50.0,88,30.16,7.0,East,10.4,-,N/A,,Overcast,80,2013-04-17 13:10:00
10:53 AM,57.9,53.1,84,30.14,10.0,East,10.4,-,N/A,,Overcast,100,2013-04-17 14:53:00
11:53 AM,62.1,55.9,80,30.12,10.0,SE,16.1,21.9,0.00,,Overcast,140,2013-04-17 15:53:00
12:00 PM,62.6,57.2,82,30.12,10.0,SE,16.1,-,N/A,,Overcast,130,2013-04-17 16:00:00
12:53 PM,64.9,59.0,81,30.11,10.0,SE,9.2,-,N/A,,Overcast,140,2013-04-17 16:53:00
1:05 PM,66.2,60.8,83,30.10,10.0,SE,10.4,-,N/A,,Overcast,140,2013-04-17 17:05:00
1:13 PM,66.2,60.8,83,30.10,10.0,SE,8.1,-,N/A,,Overcast,140,2013-04-17 17:13:00
1:53 PM,69.1,62.1,78,30.08,10.0,SE,10.4,-,N/A,,Overcast,140,2013-04-17 17:53:00
2:53 PM,72.0,64.0,76,30.04,10.0,SSE,11.5,-,N/A,,Overcast,150,2013-04-17 18:53:00
3:53 PM,73.0,64.9,76,30.02,10.0,SE,13.8,-,N/A,,Overcast,140,2013-04-17 19:53:00
4:53 PM,75.0,66.9,76,29.98,9.0,SE,16.1,-,N/A,,Mostly Cloudy,140,2013-04-17 20:53:00
5:05 PM,73.4,66.2,78,29.98,9.0,SSE,18.4,-,N/A,,Mostly Cloudy,160,2013-04-17 21:05:00
5:50 PM,73.4,66.2,78,29.97,10.0,SSE,19.6,-,N/A,,Scattered Clouds,160,2013-04-17 21:50:00
5:53 PM,73.9,66.0,76,29.97,10.0,South,17.3,-,N/A,,Scattered Clouds,170,2013-04-17 21:53:00
6:18 PM,73.4,64.4,73,29.96,10.0,SSE,19.6,26.5,N/A,Thunderstorm,Clear,160,2013-04-17 22:18:00
6:53 PM,71.1,64.9,81,29.97,10.0,South,12.7,-,0.01,Rain-Thunderstorm,Light Rain,180,2013-04-17 22:53:00
7:01 PM,71.6,66.2,83,29.97,10.0,South,9.2,-,0.00,,Mostly Cloudy,170,2013-04-17 23:01:00
7:53 PM,71.1,64.9,81,29.94,10.0,SSE,10.4,-,0.00,,Partly Cloudy,150,2013-04-17 23:53:00
8:53 PM,69.1,63.0,81,29.90,10.0,SSE,15.0,-,N/A,,Clear,150,2013-04-18 00:53:00
9:53 PM,68.0,61.0,78,29.92,10.0,SSE,12.7,-,N/A,,Clear,160,2013-04-18 01:53:00
10:53 PM,66.0,61.0,84,29.91,10.0,SE,6.9,-,N/A,,Clear,130,2013-04-18 02:53:00
11:53 PM,66.0,60.1,81,29.89,10.0,SE,10.4,-,N/A,,Clear,140,2013-04-18 03:53:00